sensor_id;sensor_type;location;lat;lon;timestamp;P1;durP1;ratioP1;P2;durP2;ratioP2
20639;SDS011;10479;53.524;9.846;2023-04-01T00:01:58;15.10;;;6.07;;
20639;SDS011;10479;53.524;9.846;2023-04-01T00:04:23;16.08;;;6.10;;
20639;SDS011;10479;53.524;9.846;2023-04-01T00:06:49;16.95;;;5.50;;
20639;SDS011;10479;53.524;9.846;2023-04-01T00:09:15;15.57;;;6.30;;
20639;SDS011;10479;53.524;9.846;2023-04-01T00:11:40;19.20;;;7.25;;
20639;SDS011;10479;53.524;9.846;2023-04-01T00:14:06;18.08;;;6.80;;
20639;SDS011;10479;53.524;9.846;2023-04-01T00:16:32;17.88;;;6.90;;
20639;SDS011;10479;53.524;9.846;2023-04-01T00:18:58;23.30;;;7.30;;
20639;SDS011;10479;53.524;9.846;2023-04-01T00:21:23;19.13;;;6.70;;
20639;SDS011;10479;53.524;9.846;2023-04-01T00:23:50;19.33;;;6.25;;
20639;SDS011;10479;53.524;9.846;2023-04-01T00:26:15;14.52;;;5.90;;
20639;SDS011;10479;53.524;9.846;2023-04-01T00:28:44;21.75;;;6.70;;
20639;SDS011;10479;53.524;9.846;2023-04-01T00:31:10;15.80;;;5.75;;
20639;SDS011;10479;53.524;9.846;2023-04-01T00:33:39;19.73;;;6.70;;
20639;SDS011;10479;53.524;9.846;2023-04-01T00:36:08;18.90;;;6.25;;
20639;SDS011;10479;53.524;9.846;2023-04-01T00:38:36;21.48;;;6.10;;
20639;SDS011;10479;53.524;9.846;2023-04-01T00:41:02;16.20;;;6.25;;
20639;SDS011;10479;53.524;9.846;2023-04-01T00:43:28;17.50;;;6.60;;
20639;SDS011;10479;53.524;9.846;2023-04-01T00:45:54;17.88;;;6.03;;
20639;SDS011;10479;53.524;9.846;2023-04-01T00:48:20;18.75;;;7.13;;
20639;SDS011;10479;53.524;9.846;2023-04-01T00:50:52;19.50;;;7.20;;
20639;SDS011;10479;53.524;9.846;2023-04-01T00:53:20;20.85;;;7.63;;
20639;SDS011;10479;53.524;9.846;2023-04-01T00:56:00;20.10;;;7.50;;
20639;SDS011;10479;53.524;9.846;2023-04-01T00:58:31;20.30;;;7.55;;
20639;SDS011;10479;53.524;9.846;2023-04-01T01:00:58;16.77;;;6.53;;
20639;SDS011;10479;53.524;9.846;2023-04-01T01:03:24;19.40;;;7.55;;
20639;SDS011;10479;53.524;9.846;2023-04-01T01:05:54;21.75;;;7.70;;
20639;SDS011;10479;53.524;9.846;2023-04-01T01:11:08;25.00;;;8.13;;
20639;SDS011;10479;53.524;9.846;2023-04-01T01:16:10;19.10;;;7.22;;
20639;SDS011;10479;53.524;9.846;2023-04-01T01:19:01;24.23;;;8.18;;
20639;SDS011;10479;53.524;9.846;2023-04-01T01:22:00;13.68;;;7.03;;
20639;SDS011;10479;53.524;9.846;2023-04-01T01:24:30;23.63;;;8.65;;
20639;SDS011;10479;53.524;9.846;2023-04-01T01:27:12;19.20;;;8.40;;
20639;SDS011;10479;53.524;9.846;2023-04-01T01:38:00;16.67;;;6.63;;
20639;SDS011;10479;53.524;9.846;2023-04-01T01:40:28;17.00;;;6.82;;
20639;SDS011;10479;53.524;9.846;2023-04-01T01:42:58;19.13;;;7.72;;
20639;SDS011;10479;53.524;9.846;2023-04-01T01:45:26;24.60;;;8.35;;
20639;SDS011;10479;53.524;9.846;2023-04-01T01:47:51;19.27;;;7.68;;
20639;SDS011;10479;53.524;9.846;2023-04-01T01:50:17;16.65;;;7.25;;
20639;SDS011;10479;53.524;9.846;2023-04-01T01:52:44;18.40;;;7.75;;
20639;SDS011;10479;53.524;9.846;2023-04-01T01:55:29;23.67;;;8.45;;
20639;SDS011;10479;53.524;9.846;2023-04-01T01:57:58;22.42;;;9.40;;
20639;SDS011;10479;53.524;9.846;2023-04-01T02:00:25;17.40;;;7.40;;
20639;SDS011;10479;53.524;9.846;2023-04-01T02:02:51;20.65;;;8.13;;
20639;SDS011;10479;53.524;9.846;2023-04-01T02:05:19;28.35;;;9.40;;
20639;SDS011;10479;53.524;9.846;2023-04-01T02:07:48;22.85;;;9.00;;
20639;SDS011;10479;53.524;9.846;2023-04-01T02:10:21;18.70;;;7.97;;
20639;SDS011;10479;53.524;9.846;2023-04-01T02:12:47;18.67;;;8.52;;
20639;SDS011;10479;53.524;9.846;2023-04-01T02:15:14;19.73;;;8.82;;
20639;SDS011;10479;53.524;9.846;2023-04-01T02:17:43;21.02;;;8.38;;
20639;SDS011;10479;53.524;9.846;2023-04-01T02:20:20;26.60;;;9.05;;
20639;SDS011;10479;53.524;9.846;2023-04-01T02:22:48;19.20;;;9.40;;
20639;SDS011;10479;53.524;9.846;2023-04-01T02:25:20;27.75;;;10.35;;
20639;SDS011;10479;53.524;9.846;2023-04-01T02:27:51;35.15;;;10.88;;
20639;SDS011;10479;53.524;9.846;2023-04-01T02:30:17;29.33;;;10.88;;
20639;SDS011;10479;53.524;9.846;2023-04-01T02:32:43;24.90;;;9.52;;
20639;SDS011;10479;53.524;9.846;2023-04-01T02:35:10;22.73;;;9.32;;
20639;SDS011;10479;53.524;9.846;2023-04-01T02:37:37;27.48;;;9.40;;
20639;SDS011;10479;53.524;9.846;2023-04-01T02:40:04;25.20;;;9.15;;
20639;SDS011;10479;53.524;9.846;2023-04-01T02:42:31;22.50;;;8.20;;
20639;SDS011;10479;53.524;9.846;2023-04-01T02:44:57;18.13;;;8.50;;
20639;SDS011;10479;53.524;9.846;2023-04-01T02:47:22;23.85;;;8.63;;
20639;SDS011;10479;53.524;9.846;2023-04-01T02:49:48;19.33;;;8.35;;
20639;SDS011;10479;53.524;9.846;2023-04-01T02:52:13;22.05;;;9.32;;
20639;SDS011;10479;53.524;9.846;2023-04-01T02:54:39;18.55;;;8.10;;
20639;SDS011;10479;53.524;9.846;2023-04-01T02:57:05;29.50;;;9.90;;
20639;SDS011;10479;53.524;9.846;2023-04-01T02:59:31;17.83;;;8.07;;
20639;SDS011;10479;53.524;9.846;2023-04-01T03:01:56;22.58;;;9.35;;
20639;SDS011;10479;53.524;9.846;2023-04-01T03:04:22;21.58;;;9.23;;
20639;SDS011;10479;53.524;9.846;2023-04-01T03:06:48;22.73;;;8.82;;
20639;SDS011;10479;53.524;9.846;2023-04-01T03:09:14;24.20;;;9.48;;
20639;SDS011;10479;53.524;9.846;2023-04-01T03:11:41;18.67;;;8.75;;
20639;SDS011;10479;53.524;9.846;2023-04-01T03:14:06;25.42;;;9.65;;
20639;SDS011;10479;53.524;9.846;2023-04-01T03:16:32;20.60;;;9.82;;
20639;SDS011;10479;53.524;9.846;2023-04-01T03:18:57;23.27;;;10.02;;
20639;SDS011;10479;53.524;9.846;2023-04-01T03:21:24;24.40;;;10.52;;
20639;SDS011;10479;53.524;9.846;2023-04-01T03:23:50;21.80;;;10.20;;
20639;SDS011;10479;53.524;9.846;2023-04-01T03:26:16;25.38;;;10.50;;
20639;SDS011;10479;53.524;9.846;2023-04-01T03:28:41;27.08;;;10.93;;
20639;SDS011;10479;53.524;9.846;2023-04-01T03:31:07;22.63;;;9.55;;
20639;SDS011;10479;53.524;9.846;2023-04-01T03:33:33;24.95;;;10.00;;
20639;SDS011;10479;53.524;9.846;2023-04-01T03:35:59;27.35;;;10.50;;
20639;SDS011;10479;53.524;9.846;2023-04-01T03:38:24;24.63;;;11.13;;
20639;SDS011;10479;53.524;9.846;2023-04-01T03:40:50;34.20;;;11.05;;
20639;SDS011;10479;53.524;9.846;2023-04-01T03:43:15;21.83;;;9.80;;
20639;SDS011;10479;53.524;9.846;2023-04-01T03:45:48;31.73;;;11.48;;
20639;SDS011;10479;53.524;9.846;2023-04-01T03:48:15;18.70;;;9.32;;
20639;SDS011;10479;53.524;9.846;2023-04-01T03:50:40;30.00;;;11.85;;
20639;SDS011;10479;53.524;9.846;2023-04-01T03:53:06;20.85;;;9.88;;
20639;SDS011;10479;53.524;9.846;2023-04-01T03:55:31;30.05;;;11.85;;
20639;SDS011;10479;53.524;9.846;2023-04-01T03:57:57;21.80;;;9.77;;
20639;SDS011;10479;53.524;9.846;2023-04-01T04:00:22;25.00;;;10.07;;
20639;SDS011;10479;53.524;9.846;2023-04-01T04:02:48;23.70;;;10.13;;
20639;SDS011;10479;53.524;9.846;2023-04-01T04:05:13;25.45;;;10.50;;
20639;SDS011;10479;53.524;9.846;2023-04-01T04:07:39;24.02;;;11.18;;
20639;SDS011;10479;53.524;9.846;2023-04-01T04:10:04;25.08;;;11.13;;
20639;SDS011;10479;53.524;9.846;2023-04-01T04:12:31;26.67;;;11.35;;
20639;SDS011;10479;53.524;9.846;2023-04-01T04:14:56;24.60;;;11.60;;
20639;SDS011;10479;53.524;9.846;2023-04-01T04:17:21;23.35;;;11.27;;
20639;SDS011;10479;53.524;9.846;2023-04-01T04:19:47;28.92;;;12.60;;
20639;SDS011;10479;53.524;9.846;2023-04-01T04:22:12;27.05;;;11.25;;
20639;SDS011;10479;53.524;9.846;2023-04-01T04:24:38;23.85;;;11.30;;
20639;SDS011;10479;53.524;9.846;2023-04-01T04:27:04;24.90;;;11.85;;
20639;SDS011;10479;53.524;9.846;2023-04-01T04:29:29;30.45;;;13.43;;
20639;SDS011;10479;53.524;9.846;2023-04-01T04:31:55;26.45;;;12.02;;
20639;SDS011;10479;53.524;9.846;2023-04-01T04:34:20;26.95;;;11.68;;
20639;SDS011;10479;53.524;9.846;2023-04-01T04:36:47;24.52;;;11.13;;
20639;SDS011;10479;53.524;9.846;2023-04-01T04:39:13;22.77;;;9.90;;
20639;SDS011;10479;53.524;9.846;2023-04-01T04:41:39;25.58;;;11.35;;
20639;SDS011;10479;53.524;9.846;2023-04-01T04:44:05;26.98;;;10.80;;
20639;SDS011;10479;53.524;9.846;2023-04-01T04:46:30;23.10;;;9.88;;
20639;SDS011;10479;53.524;9.846;2023-04-01T04:48:56;25.88;;;11.80;;
20639;SDS011;10479;53.524;9.846;2023-04-01T04:51:22;22.73;;;9.65;;
20639;SDS011;10479;53.524;9.846;2023-04-01T04:53:48;22.80;;;9.90;;
20639;SDS011;10479;53.524;9.846;2023-04-01T04:56:18;24.02;;;10.82;;
20639;SDS011;10479;53.524;9.846;2023-04-01T04:58:47;26.58;;;11.60;;
20639;SDS011;10479;53.524;9.846;2023-04-01T05:01:14;27.58;;;11.07;;
20639;SDS011;10479;53.524;9.846;2023-04-01T05:03:40;21.05;;;9.77;;
20639;SDS011;10479;53.524;9.846;2023-04-01T05:06:07;27.45;;;11.23;;
20639;SDS011;10479;53.524;9.846;2023-04-01T05:08:33;19.65;;;8.95;;
20639;SDS011;10479;53.524;9.846;2023-04-01T05:11:00;19.17;;;8.75;;
20639;SDS011;10479;53.524;9.846;2023-04-01T05:13:26;21.65;;;8.35;;
20639;SDS011;10479;53.524;9.846;2023-04-01T05:15:52;21.25;;;9.43;;
20639;SDS011;10479;53.524;9.846;2023-04-01T05:18:17;21.25;;;9.18;;
20639;SDS011;10479;53.524;9.846;2023-04-01T05:20:47;18.90;;;7.55;;
20639;SDS011;10479;53.524;9.846;2023-04-01T05:23:16;15.80;;;7.78;;
20639;SDS011;10479;53.524;9.846;2023-04-01T05:25:42;20.55;;;8.45;;
20639;SDS011;10479;53.524;9.846;2023-04-01T05:28:08;25.30;;;10.05;;
20639;SDS011;10479;53.524;9.846;2023-04-01T05:30:34;20.92;;;9.43;;
20639;SDS011;10479;53.524;9.846;2023-04-01T05:32:59;25.58;;;10.50;;
20639;SDS011;10479;53.524;9.846;2023-04-01T05:35:25;24.85;;;9.70;;
20639;SDS011;10479;53.524;9.846;2023-04-01T05:37:51;24.85;;;10.27;;
20639;SDS011;10479;53.524;9.846;2023-04-01T05:40:16;22.30;;;9.88;;
20639;SDS011;10479;53.524;9.846;2023-04-01T05:42:42;23.77;;;10.02;;
20639;SDS011;10479;53.524;9.846;2023-04-01T05:45:07;26.98;;;9.15;;
20639;SDS011;10479;53.524;9.846;2023-04-01T05:47:33;28.98;;;11.00;;
20639;SDS011;10479;53.524;9.846;2023-04-01T05:49:59;25.08;;;9.55;;
20639;SDS011;10479;53.524;9.846;2023-04-01T05:52:25;22.40;;;8.75;;
20639;SDS011;10479;53.524;9.846;2023-04-01T05:54:50;22.88;;;10.18;;
20639;SDS011;10479;53.524;9.846;2023-04-01T05:57:16;21.52;;;8.63;;
20639;SDS011;10479;53.524;9.846;2023-04-01T05:59:41;20.38;;;8.45;;
20639;SDS011;10479;53.524;9.846;2023-04-01T06:02:08;23.70;;;11.38;;
20639;SDS011;10479;53.524;9.846;2023-04-01T06:04:34;9.63;;;4.22;;
20639;SDS011;10479;53.524;9.846;2023-04-01T06:07:16;4.65;;;2.40;;
20639;SDS011;10479;53.524;9.846;2023-04-01T06:09:43;6.30;;;1.30;;
20639;SDS011;10479;53.524;9.846;2023-04-01T06:19:57;3.05;;;1.52;;
20639;SDS011;10479;53.524;9.846;2023-04-01T06:26:00;3.53;;;1.63;;
20639;SDS011;10479;53.524;9.846;2023-04-01T06:31:33;5.55;;;2.00;;
20639;SDS011;10479;53.524;9.846;2023-04-01T06:45:06;3.85;;;1.90;;
20639;SDS011;10479;53.524;9.846;2023-04-01T06:48:05;3.80;;;1.60;;
20639;SDS011;10479;53.524;9.846;2023-04-01T06:56:25;3.53;;;1.23;;
20639;SDS011;10479;53.524;9.846;2023-04-01T06:58:53;2.90;;;1.40;;
20639;SDS011;10479;53.524;9.846;2023-04-01T07:01:26;2.63;;;1.05;;
20639;SDS011;10479;53.524;9.846;2023-04-01T07:07:01;3.25;;;1.10;;
20639;SDS011;10479;53.524;9.846;2023-04-01T07:09:32;3.20;;;1.20;;
20639;SDS011;10479;53.524;9.846;2023-04-01T07:12:02;2.40;;;1.00;;
20639;SDS011;10479;53.524;9.846;2023-04-01T07:14:38;2.38;;;1.00;;
20639;SDS011;10479;53.524;9.846;2023-04-01T07:17:19;3.38;;;0.82;;
20639;SDS011;10479;53.524;9.846;2023-04-01T07:19:50;1.85;;;0.80;;
20639;SDS011;10479;53.524;9.846;2023-04-01T07:22:36;1.73;;;0.70;;
20639;SDS011;10479;53.524;9.846;2023-04-01T07:25:14;1.35;;;0.60;;
20639;SDS011;10479;53.524;9.846;2023-04-01T07:27:42;1.50;;;0.68;;
20639;SDS011;10479;53.524;9.846;2023-04-01T07:30:15;1.50;;;0.60;;
20639;SDS011;10479;53.524;9.846;2023-04-01T07:32:54;2.60;;;1.15;;
20639;SDS011;10479;53.524;9.846;2023-04-01T07:43:38;3.55;;;1.10;;
20639;SDS011;10479;53.524;9.846;2023-04-01T07:46:24;2.88;;;1.08;;
20639;SDS011;10479;53.524;9.846;2023-04-01T07:49:02;5.47;;;1.50;;
20639;SDS011;10479;53.524;9.846;2023-04-01T07:54:31;3.60;;;1.10;;
20639;SDS011;10479;53.524;9.846;2023-04-01T07:57:20;3.15;;;1.10;;
20639;SDS011;10479;53.524;9.846;2023-04-01T08:05:23;2.50;;;1.05;;
20639;SDS011;10479;53.524;9.846;2023-04-01T08:10:43;1.95;;;0.70;;
20639;SDS011;10479;53.524;9.846;2023-04-01T08:16:20;2.20;;;0.82;;
20639;SDS011;10479;53.524;9.846;2023-04-01T08:21:32;4.03;;;1.35;;
20639;SDS011;10479;53.524;9.846;2023-04-01T08:24:08;3.17;;;1.05;;
20639;SDS011;10479;53.524;9.846;2023-04-01T08:26:41;4.05;;;0.98;;
20639;SDS011;10479;53.524;9.846;2023-04-01T08:34:35;4.03;;;0.88;;
20639;SDS011;10479;53.524;9.846;2023-04-01T08:37:04;1.27;;;0.60;;
20639;SDS011;10479;53.524;9.846;2023-04-01T08:39:37;2.63;;;0.80;;
20639;SDS011;10479;53.524;9.846;2023-04-01T08:42:09;2.90;;;0.80;;
20639;SDS011;10479;53.524;9.846;2023-04-01T08:56:20;2.03;;;0.60;;
20639;SDS011;10479;53.524;9.846;2023-04-01T08:58:53;2.90;;;0.80;;
20639;SDS011;10479;53.524;9.846;2023-04-01T09:18:29;2.33;;;0.90;;
20639;SDS011;10479;53.524;9.846;2023-04-01T09:42:15;2.47;;;1.02;;
20639;SDS011;10479;53.524;9.846;2023-04-01T09:45:07;3.42;;;0.73;;
20639;SDS011;10479;53.524;9.846;2023-04-01T09:58:33;2.53;;;0.70;;
20639;SDS011;10479;53.524;9.846;2023-04-01T10:36:59;2.10;;;0.70;;
20639;SDS011;10479;53.524;9.846;2023-04-01T10:45:37;1.23;;;0.70;;
20639;SDS011;10479;53.524;9.846;2023-04-01T10:51:15;2.83;;;0.60;;
20639;SDS011;10479;53.524;9.846;2023-04-01T11:16:15;1.83;;;0.63;;
20639;SDS011;10479;53.524;9.846;2023-04-01T11:27:08;2.55;;;1.10;;
20639;SDS011;10479;53.524;9.846;2023-04-01T11:35:31;1.30;;;0.57;;
20639;SDS011;10479;53.524;9.846;2023-04-01T11:38:07;1.52;;;0.70;;
20639;SDS011;10479;53.524;9.846;2023-04-01T11:43:21;3.20;;;0.80;;
20639;SDS011;10479;53.524;9.846;2023-04-01T11:46:03;3.70;;;0.90;;
20639;SDS011;10479;53.524;9.846;2023-04-01T11:48:37;2.92;;;1.00;;
20639;SDS011;10479;53.524;9.846;2023-04-01T11:59:40;3.60;;;1.13;;
20639;SDS011;10479;53.524;9.846;2023-04-01T12:02:33;3.25;;;1.27;;
20639;SDS011;10479;53.524;9.846;2023-04-01T12:21:58;6.15;;;2.97;;
20639;SDS011;10479;53.524;9.846;2023-04-01T12:33:45;6.15;;;3.10;;
20639;SDS011;10479;53.524;9.846;2023-04-01T12:36:47;9.77;;;3.33;;
20639;SDS011;10479;53.524;9.846;2023-04-01T13:05:59;7.55;;;3.70;;
20639;SDS011;10479;53.524;9.846;2023-04-01T13:29:28;8.38;;;2.80;;
20639;SDS011;10479;53.524;9.846;2023-04-01T13:48:32;6.10;;;3.17;;
20639;SDS011;10479;53.524;9.846;2023-04-01T13:51:38;8.73;;;2.75;;
20639;SDS011;10479;53.524;9.846;2023-04-01T14:09:11;5.60;;;2.60;;
20639;SDS011;10479;53.524;9.846;2023-04-01T14:14:36;9.18;;;2.88;;
20639;SDS011;10479;53.524;9.846;2023-04-01T14:17:29;12.90;;;3.00;;
20639;SDS011;10479;53.524;9.846;2023-04-01T14:25:55;10.48;;;3.70;;
20639;SDS011;10479;53.524;9.846;2023-04-01T14:34:51;8.95;;;3.45;;
20639;SDS011;10479;53.524;9.846;2023-04-01T14:48:56;9.10;;;3.77;;
20639;SDS011;10479;53.524;9.846;2023-04-01T14:56:38;6.95;;;3.20;;
20639;SDS011;10479;53.524;9.846;2023-04-01T14:59:09;9.13;;;3.78;;
20639;SDS011;10479;53.524;9.846;2023-04-01T15:18:38;10.38;;;3.95;;
20639;SDS011;10479;53.524;9.846;2023-04-01T15:32:39;8.57;;;3.92;;
20639;SDS011;10479;53.524;9.846;2023-04-01T15:44:00;11.43;;;4.53;;
20639;SDS011;10479;53.524;9.846;2023-04-01T15:57:25;10.50;;;4.55;;
20639;SDS011;10479;53.524;9.846;2023-04-01T16:02:43;9.32;;;4.35;;
20639;SDS011;10479;53.524;9.846;2023-04-01T16:10:50;15.48;;;5.25;;
20639;SDS011;10479;53.524;9.846;2023-04-01T16:19:17;17.15;;;6.47;;
20639;SDS011;10479;53.524;9.846;2023-04-01T16:21:48;13.63;;;5.68;;
20639;SDS011;10479;53.524;9.846;2023-04-01T16:29:50;12.13;;;5.32;;
20639;SDS011;10479;53.524;9.846;2023-04-01T16:35:25;12.63;;;5.28;;
20639;SDS011;10479;53.524;9.846;2023-04-01T16:43:42;15.00;;;5.95;;
20639;SDS011;10479;53.524;9.846;2023-04-01T16:46:26;12.98;;;4.80;;
20639;SDS011;10479;53.524;9.846;2023-04-01T16:49:04;12.98;;;4.80;;
20639;SDS011;10479;53.524;9.846;2023-04-01T16:56:46;13.65;;;4.63;;
20639;SDS011;10479;53.524;9.846;2023-04-01T16:59:29;14.95;;;4.25;;
20639;SDS011;10479;53.524;9.846;2023-04-01T17:02:03;14.25;;;4.85;;
20639;SDS011;10479;53.524;9.846;2023-04-01T17:21:07;13.93;;;5.15;;
20639;SDS011;10479;53.524;9.846;2023-04-01T17:23:37;13.57;;;6.50;;
20639;SDS011;10479;53.524;9.846;2023-04-01T17:26:13;19.77;;;7.18;;
20639;SDS011;10479;53.524;9.846;2023-04-01T17:31:46;17.85;;;6.60;;
20639;SDS011;10479;53.524;9.846;2023-04-01T17:37:02;14.90;;;5.93;;
20639;SDS011;10479;53.524;9.846;2023-04-01T17:39:41;13.27;;;5.85;;
20639;SDS011;10479;53.524;9.846;2023-04-01T17:42:26;14.82;;;4.90;;
20639;SDS011;10479;53.524;9.846;2023-04-01T17:45:04;19.50;;;5.18;;
20639;SDS011;10479;53.524;9.846;2023-04-01T17:47:38;16.42;;;5.00;;
20639;SDS011;10479;53.524;9.846;2023-04-01T17:50:21;15.15;;;4.68;;
20639;SDS011;10479;53.524;9.846;2023-04-01T17:53:12;11.98;;;4.50;;
20639;SDS011;10479;53.524;9.846;2023-04-01T18:14:50;13.63;;;4.40;;
20639;SDS011;10479;53.524;9.846;2023-04-01T18:20:27;14.20;;;4.30;;
20639;SDS011;10479;53.524;9.846;2023-04-01T18:23:11;10.57;;;4.10;;
20639;SDS011;10479;53.524;9.846;2023-04-01T18:25:44;10.25;;;4.35;;
20639;SDS011;10479;53.524;9.846;2023-04-01T18:38:53;8.40;;;3.58;;
20639;SDS011;10479;53.524;9.846;2023-04-01T18:44:13;9.65;;;3.60;;
20639;SDS011;10479;53.524;9.846;2023-04-01T18:46:54;12.45;;;3.78;;
20639;SDS011;10479;53.524;9.846;2023-04-01T18:49:33;7.35;;;3.75;;
20639;SDS011;10479;53.524;9.846;2023-04-01T18:52:17;11.02;;;3.92;;
20639;SDS011;10479;53.524;9.846;2023-04-01T18:57:27;7.68;;;3.78;;
20639;SDS011;10479;53.524;9.846;2023-04-01T19:02:48;10.32;;;4.28;;
20639;SDS011;10479;53.524;9.846;2023-04-01T19:08:14;17.55;;;4.15;;
20639;SDS011;10479;53.524;9.846;2023-04-01T19:35:26;7.00;;;3.00;;
20639;SDS011;10479;53.524;9.846;2023-04-01T19:37:57;9.75;;;3.33;;
20639;SDS011;10479;53.524;9.846;2023-04-01T19:54:34;11.93;;;4.18;;
20639;SDS011;10479;53.524;9.846;2023-04-01T20:04:48;10.43;;;3.95;;
20639;SDS011;10479;53.524;9.846;2023-04-01T20:07:20;9.27;;;2.92;;
20639;SDS011;10479;53.524;9.846;2023-04-01T20:12:29;8.68;;;3.63;;
20639;SDS011;10479;53.524;9.846;2023-04-01T20:14:57;10.95;;;3.13;;
20639;SDS011;10479;53.524;9.846;2023-04-01T20:17:43;9.40;;;3.40;;
20639;SDS011;10479;53.524;9.846;2023-04-01T20:30:57;11.18;;;2.80;;
20639;SDS011;10479;53.524;9.846;2023-04-01T20:49:54;10.07;;;2.97;;
20639;SDS011;10479;53.524;9.846;2023-04-01T20:52:43;9.07;;;2.95;;
20639;SDS011;10479;53.524;9.846;2023-04-01T20:58:19;9.00;;;3.03;;
20639;SDS011;10479;53.524;9.846;2023-04-01T21:04:00;8.48;;;2.85;;
20639;SDS011;10479;53.524;9.846;2023-04-01T21:16:58;6.90;;;2.90;;
20639;SDS011;10479;53.524;9.846;2023-04-01T21:22:40;9.75;;;3.10;;
20639;SDS011;10479;53.524;9.846;2023-04-01T21:36:39;9.73;;;2.97;;
20639;SDS011;10479;53.524;9.846;2023-04-01T22:04:00;6.38;;;1.83;;
20639;SDS011;10479;53.524;9.846;2023-04-01T22:06:37;8.63;;;2.20;;
20639;SDS011;10479;53.524;9.846;2023-04-01T22:11:59;8.68;;;2.00;;
20639;SDS011;10479;53.524;9.846;2023-04-01T22:31:47;7.65;;;1.90;;
20639;SDS011;10479;53.524;9.846;2023-04-01T22:37:24;6.32;;;1.67;;
20639;SDS011;10479;53.524;9.846;2023-04-01T22:52:44;6.90;;;1.92;;
20639;SDS011;10479;53.524;9.846;2023-04-01T22:55:15;5.15;;;1.50;;
20639;SDS011;10479;53.524;9.846;2023-04-01T23:00:30;10.95;;;2.10;;
20639;SDS011;10479;53.524;9.846;2023-04-01T23:05:36;6.00;;;1.60;;
20639;SDS011;10479;53.524;9.846;2023-04-01T23:11:18;7.45;;;1.55;;
20639;SDS011;10479;53.524;9.846;2023-04-01T23:16:35;12.90;;;1.88;;
20639;SDS011;10479;53.524;9.846;2023-04-01T23:19:13;10.63;;;1.95;;
20639;SDS011;10479;53.524;9.846;2023-04-01T23:21:47;10.73;;;2.42;;
20639;SDS011;10479;53.524;9.846;2023-04-01T23:24:18;10.13;;;1.52;;
20639;SDS011;10479;53.524;9.846;2023-04-01T23:29:20;9.07;;;1.45;;
20639;SDS011;10479;53.524;9.846;2023-04-01T23:31:47;6.78;;;1.55;;
20639;SDS011;10479;53.524;9.846;2023-04-01T23:36:43;7.10;;;1.60;;
20639;SDS011;10479;53.524;9.846;2023-04-01T23:39:19;7.18;;;2.15;;
20639;SDS011;10479;53.524;9.846;2023-04-01T23:41:46;9.43;;;1.40;;
20639;SDS011;10479;53.524;9.846;2023-04-01T23:44:12;7.68;;;1.60;;
20639;SDS011;10479;53.524;9.846;2023-04-01T23:46:39;6.13;;;1.75;;
20639;SDS011;10479;53.524;9.846;2023-04-01T23:49:06;6.10;;;1.35;;
20639;SDS011;10479;53.524;9.846;2023-04-01T23:51:39;7.43;;;1.55;;
20639;SDS011;10479;53.524;9.846;2023-04-01T23:57:30;9.32;;;2.03;;
